sensor_id;sensor_type;location;lat;lon;timestamp;temperature;humidity
52073;DHT22;38074;51.232;6.826;2023-12-14T00:00:24;22.50;48.80
52073;DHT22;38074;51.232;6.826;2023-12-14T00:07:39;22.50;48.80
52073;DHT22;38074;51.232;6.826;2023-12-14T00:14:55;22.50;48.80
52073;DHT22;38074;51.232;6.826;2023-12-14T00:22:10;22.50;48.80
52073;DHT22;38074;51.232;6.826;2023-12-14T00:29:26;22.50;48.80
52073;DHT22;38074;51.232;6.826;2023-12-14T00:36:41;22.50;48.80
52073;DHT22;38074;51.232;6.826;2023-12-14T00:43:58;22.50;48.70
52073;DHT22;38074;51.232;6.826;2023-12-14T00:51:13;22.50;48.70
52073;DHT22;38074;51.232;6.826;2023-12-14T00:58:29;22.50;48.70
52073;DHT22;38074;51.232;6.826;2023-12-14T01:05:44;22.40;48.70
52073;DHT22;38074;51.232;6.826;2023-12-14T01:13:00;22.40;48.70
52073;DHT22;38074;51.232;6.826;2023-12-14T01:20:15;22.50;48.70
52073;DHT22;38074;51.232;6.826;2023-12-14T01:27:31;22.40;48.60
52073;DHT22;38074;51.232;6.826;2023-12-14T01:34:46;22.40;48.60
52073;DHT22;38074;51.232;6.826;2023-12-14T01:42:02;22.40;48.60
52073;DHT22;38074;51.232;6.826;2023-12-14T01:49:17;22.50;48.60
52073;DHT22;38074;51.232;6.826;2023-12-14T01:56:33;22.50;48.60
52073;DHT22;38074;51.232;6.826;2023-12-14T02:03:52;22.40;48.50
52073;DHT22;38074;51.232;6.826;2023-12-14T02:11:10;22.40;48.40
52073;DHT22;38074;51.232;6.826;2023-12-14T02:18:25;22.40;48.40
52073;DHT22;38074;51.232;6.826;2023-12-14T02:25:41;22.50;48.40
52073;DHT22;38074;51.232;6.826;2023-12-14T02:32:56;22.40;48.40
52073;DHT22;38074;51.232;6.826;2023-12-14T02:40:12;22.50;48.40
52073;DHT22;38074;51.232;6.826;2023-12-14T02:47:28;22.40;48.20
52073;DHT22;38074;51.232;6.826;2023-12-14T02:54:44;22.40;48.20
52073;DHT22;38074;51.232;6.826;2023-12-14T03:01:59;22.40;48.10
52073;DHT22;38074;51.232;6.826;2023-12-14T03:09:15;22.40;48.00
52073;DHT22;38074;51.232;6.826;2023-12-14T03:16:31;22.50;48.10
52073;DHT22;38074;51.232;6.826;2023-12-14T03:23:46;22.40;48.00
52073;DHT22;38074;51.232;6.826;2023-12-14T03:31:02;22.40;48.00
52073;DHT22;38074;51.232;6.826;2023-12-14T03:38:18;22.40;47.90
52073;DHT22;38074;51.232;6.826;2023-12-14T03:45:34;22.40;47.90
52073;DHT22;38074;51.232;6.826;2023-12-14T03:52:49;22.40;47.80
52073;DHT22;38074;51.232;6.826;2023-12-14T04:00:05;22.40;47.80
52073;DHT22;38074;51.232;6.826;2023-12-14T04:07:21;22.40;47.80
52073;DHT22;38074;51.232;6.826;2023-12-14T04:14:37;22.50;47.80
52073;DHT22;38074;51.232;6.826;2023-12-14T04:21:52;22.40;47.60
52073;DHT22;38074;51.232;6.826;2023-12-14T04:29:08;22.40;48.20
52073;DHT22;38074;51.232;6.826;2023-12-14T04:36:23;22.40;47.50
52073;DHT22;38074;51.232;6.826;2023-12-14T04:43:39;22.40;47.50
52073;DHT22;38074;51.232;6.826;2023-12-14T04:50:54;22.40;47.50
52073;DHT22;38074;51.232;6.826;2023-12-14T04:58:10;22.40;47.50
52073;DHT22;38074;51.232;6.826;2023-12-14T05:05:25;22.40;47.40
52073;DHT22;38074;51.232;6.826;2023-12-14T05:12:41;22.40;47.40
52073;DHT22;38074;51.232;6.826;2023-12-14T05:19:56;22.40;47.40
52073;DHT22;38074;51.232;6.826;2023-12-14T05:27:12;22.40;47.30
52073;DHT22;38074;51.232;6.826;2023-12-14T05:34:27;22.40;47.30
52073;DHT22;38074;51.232;6.826;2023-12-14T05:41:43;22.40;47.30
52073;DHT22;38074;51.232;6.826;2023-12-14T05:48:59;22.40;47.20
52073;DHT22;38074;51.232;6.826;2023-12-14T05:56:14;22.40;47.20
52073;DHT22;38074;51.232;6.826;2023-12-14T06:03:30;22.40;47.20
52073;DHT22;38074;51.232;6.826;2023-12-14T06:10:47;22.40;47.10
52073;DHT22;38074;51.232;6.826;2023-12-14T06:18:02;22.40;47.10
52073;DHT22;38074;51.232;6.826;2023-12-14T06:25:18;22.40;47.30
52073;DHT22;38074;51.232;6.826;2023-12-14T06:32:33;22.40;47.40
52073;DHT22;38074;51.232;6.826;2023-12-14T06:39:49;22.40;47.50
52073;DHT22;38074;51.232;6.826;2023-12-14T06:47:04;22.40;47.60
52073;DHT22;38074;51.232;6.826;2023-12-14T06:54:20;22.40;47.90
52073;DHT22;38074;51.232;6.826;2023-12-14T07:01:35;22.40;48.00
52073;DHT22;38074;51.232;6.826;2023-12-14T07:08:51;22.50;48.00
52073;DHT22;38074;51.232;6.826;2023-12-14T07:16:08;22.50;48.20
52073;DHT22;38074;51.232;6.826;2023-12-14T07:23:23;22.40;48.30
52073;DHT22;38074;51.232;6.826;2023-12-14T07:30:39;22.40;48.50
52073;DHT22;38074;51.232;6.826;2023-12-14T07:37:54;22.50;48.90
52073;DHT22;38074;51.232;6.826;2023-12-14T07:45:10;22.50;48.50
52073;DHT22;38074;51.232;6.826;2023-12-14T07:52:25;22.50;48.30
52073;DHT22;38074;51.232;6.826;2023-12-14T07:59:41;22.50;48.20
52073;DHT22;38074;51.232;6.826;2023-12-14T08:06:56;22.50;48.10
52073;DHT22;38074;51.232;6.826;2023-12-14T08:14:12;22.50;48.00
52073;DHT22;38074;51.232;6.826;2023-12-14T08:21:27;22.40;47.90
52073;DHT22;38074;51.232;6.826;2023-12-14T08:28:44;22.50;47.90
52073;DHT22;38074;51.232;6.826;2023-12-14T08:35:59;22.50;47.80
52073;DHT22;38074;51.232;6.826;2023-12-14T08:43:15;22.50;47.70
52073;DHT22;38074;51.232;6.826;2023-12-14T08:50:30;22.50;47.60
52073;DHT22;38074;51.232;6.826;2023-12-14T08:57:46;22.40;47.50
52073;DHT22;38074;51.232;6.826;2023-12-14T09:05:02;22.50;47.40
52073;DHT22;38074;51.232;6.826;2023-12-14T09:12:17;22.50;47.40
52073;DHT22;38074;51.232;6.826;2023-12-14T09:19:33;22.40;47.20
52073;DHT22;38074;51.232;6.826;2023-12-14T09:26:48;22.40;47.10
52073;DHT22;38074;51.232;6.826;2023-12-14T09:34:04;22.40;47.00
52073;DHT22;38074;51.232;6.826;2023-12-14T09:41:19;22.40;47.00
52073;DHT22;38074;51.232;6.826;2023-12-14T09:48:35;22.50;46.90
52073;DHT22;38074;51.232;6.826;2023-12-14T09:55:51;22.40;46.80
52073;DHT22;38074;51.232;6.826;2023-12-14T10:03:24;22.40;46.80
52073;DHT22;38074;51.232;6.826;2023-12-14T10:10:41;22.40;46.70
52073;DHT22;38074;51.232;6.826;2023-12-14T10:17:57;22.50;46.70
52073;DHT22;38074;51.232;6.826;2023-12-14T10:25:13;22.40;46.50
52073;DHT22;38074;51.232;6.826;2023-12-14T10:32:29;22.40;46.50
52073;DHT22;38074;51.232;6.826;2023-12-14T10:39:46;22.40;46.30
52073;DHT22;38074;51.232;6.826;2023-12-14T10:47:02;22.40;46.30
52073;DHT22;38074;51.232;6.826;2023-12-14T10:54:19;22.40;46.20
52073;DHT22;38074;51.232;6.826;2023-12-14T11:01:35;22.40;46.10
52073;DHT22;38074;51.232;6.826;2023-12-14T11:09:03;22.40;46.10
52073;DHT22;38074;51.232;6.826;2023-12-14T11:16:22;22.40;46.00
52073;DHT22;38074;51.232;6.826;2023-12-14T11:23:37;22.40;45.90
52073;DHT22;38074;51.232;6.826;2023-12-14T11:30:55;22.40;45.90
52073;DHT22;38074;51.232;6.826;2023-12-14T11:38:11;22.50;45.90
52073;DHT22;38074;51.232;6.826;2023-12-14T11:45:28;22.40;45.80
52073;DHT22;38074;51.232;6.826;2023-12-14T11:52:44;22.40;46.10
52073;DHT22;38074;51.232;6.826;2023-12-14T12:00:00;22.40;45.70
52073;DHT22;38074;51.232;6.826;2023-12-14T12:07:16;22.40;45.60
52073;DHT22;38074;51.232;6.826;2023-12-14T12:14:32;22.40;45.60
52073;DHT22;38074;51.232;6.826;2023-12-14T12:21:47;22.40;45.60
52073;DHT22;38074;51.232;6.826;2023-12-14T12:29:03;22.40;45.50
52073;DHT22;38074;51.232;6.826;2023-12-14T12:36:21;22.40;45.50
52073;DHT22;38074;51.232;6.826;2023-12-14T12:43:36;22.40;45.40
52073;DHT22;38074;51.232;6.826;2023-12-14T12:50:52;22.40;45.40
52073;DHT22;38074;51.232;6.826;2023-12-14T12:58:07;22.40;45.40
52073;DHT22;38074;51.232;6.826;2023-12-14T13:05:23;22.40;45.30
52073;DHT22;38074;51.232;6.826;2023-12-14T13:12:40;22.40;45.20
52073;DHT22;38074;51.232;6.826;2023-12-14T13:19:56;22.40;45.10
52073;DHT22;38074;51.232;6.826;2023-12-14T13:27:11;22.40;45.10
52073;DHT22;38074;51.232;6.826;2023-12-14T13:34:28;22.50;45.10
52073;DHT22;38074;51.232;6.826;2023-12-14T13:41:43;22.40;44.90
52073;DHT22;38074;51.232;6.826;2023-12-14T13:48:59;22.40;44.90
52073;DHT22;38074;51.232;6.826;2023-12-14T13:56:14;22.40;44.80
52073;DHT22;38074;51.232;6.826;2023-12-14T14:03:30;22.40;44.80
52073;DHT22;38074;51.232;6.826;2023-12-14T14:10:45;22.40;44.70
52073;DHT22;38074;51.232;6.826;2023-12-14T14:18:01;22.40;44.70
52073;DHT22;38074;51.232;6.826;2023-12-14T14:25:16;22.40;44.60
52073;DHT22;38074;51.232;6.826;2023-12-14T14:32:32;22.40;44.50
52073;DHT22;38074;51.232;6.826;2023-12-14T14:39:47;22.40;44.50
52073;DHT22;38074;51.232;6.826;2023-12-14T14:47:03;22.40;44.40
52073;DHT22;38074;51.232;6.826;2023-12-14T14:54:19;22.40;44.30
52073;DHT22;38074;51.232;6.826;2023-12-14T15:01:34;22.40;44.30
52073;DHT22;38074;51.232;6.826;2023-12-14T15:08:50;22.40;44.20
52073;DHT22;38074;51.232;6.826;2023-12-14T15:16:06;22.40;44.30
52073;DHT22;38074;51.232;6.826;2023-12-14T15:23:22;22.40;44.20
52073;DHT22;38074;51.232;6.826;2023-12-14T15:30:37;22.30;44.80
52073;DHT22;38074;51.232;6.826;2023-12-14T15:37:53;22.30;44.80
52073;DHT22;38074;51.232;6.826;2023-12-14T15:45:09;22.40;45.00
52073;DHT22;38074;51.232;6.826;2023-12-14T15:52:24;22.40;45.30
52073;DHT22;38074;51.232;6.826;2023-12-14T15:59:40;22.40;45.40
52073;DHT22;38074;51.232;6.826;2023-12-14T16:06:55;22.40;45.30
52073;DHT22;38074;51.232;6.826;2023-12-14T16:14:11;22.40;45.20
52073;DHT22;38074;51.232;6.826;2023-12-14T16:21:26;22.40;45.20
52073;DHT22;38074;51.232;6.826;2023-12-14T16:28:42;22.40;45.20
52073;DHT22;38074;51.232;6.826;2023-12-14T16:35:57;22.40;45.20
52073;DHT22;38074;51.232;6.826;2023-12-14T16:43:13;22.40;45.00
52073;DHT22;38074;51.232;6.826;2023-12-14T16:50:34;22.40;44.80
52073;DHT22;38074;51.232;6.826;2023-12-14T16:57:49;22.50;44.90
52073;DHT22;38074;51.232;6.826;2023-12-14T17:05:05;22.50;44.70
52073;DHT22;38074;51.232;6.826;2023-12-14T17:12:21;22.50;45.30
52073;DHT22;38074;51.232;6.826;2023-12-14T17:19:36;22.40;45.30
52073;DHT22;38074;51.232;6.826;2023-12-14T17:26:53;22.60;45.80
52073;DHT22;38074;51.232;6.826;2023-12-14T17:34:09;22.60;46.00
52073;DHT22;38074;51.232;6.826;2023-12-14T17:41:24;22.60;45.80
52073;DHT22;38074;51.232;6.826;2023-12-14T17:48:41;22.60;45.70
52073;DHT22;38074;51.232;6.826;2023-12-14T17:55:56;22.60;45.00
52073;DHT22;38074;51.232;6.826;2023-12-14T18:03:12;22.60;44.80
52073;DHT22;38074;51.232;6.826;2023-12-14T18:10:27;22.50;44.60
52073;DHT22;38074;51.232;6.826;2023-12-14T18:17:43;22.50;45.00
52073;DHT22;38074;51.232;6.826;2023-12-14T18:24:58;22.50;45.20
52073;DHT22;38074;51.232;6.826;2023-12-14T18:32:14;22.50;45.10
52073;DHT22;38074;51.232;6.826;2023-12-14T18:39:30;22.50;45.00
52073;DHT22;38074;51.232;6.826;2023-12-14T18:46:45;22.50;44.90
52073;DHT22;38074;51.232;6.826;2023-12-14T18:54:00;22.50;44.90
52073;DHT22;38074;51.232;6.826;2023-12-14T19:01:16;22.50;44.80
52073;DHT22;38074;51.232;6.826;2023-12-14T19:08:31;22.50;44.70
52073;DHT22;38074;51.232;6.826;2023-12-14T19:15:47;22.50;45.10
52073;DHT22;38074;51.232;6.826;2023-12-14T19:23:04;22.50;45.00
52073;DHT22;38074;51.232;6.826;2023-12-14T19:30:19;22.50;44.80
52073;DHT22;38074;51.232;6.826;2023-12-14T19:37:35;22.50;45.10
52073;DHT22;38074;51.232;6.826;2023-12-14T19:44:51;22.50;45.00
52073;DHT22;38074;51.232;6.826;2023-12-14T19:52:06;22.50;45.00
52073;DHT22;38074;51.232;6.826;2023-12-14T19:59:22;22.50;44.70
52073;DHT22;38074;51.232;6.826;2023-12-14T20:06:37;22.50;44.60
52073;DHT22;38074;51.232;6.826;2023-12-14T20:13:53;22.50;44.50
52073;DHT22;38074;51.232;6.826;2023-12-14T20:21:08;22.50;44.40
52073;DHT22;38074;51.232;6.826;2023-12-14T20:28:24;22.50;44.40
52073;DHT22;38074;51.232;6.826;2023-12-14T20:35:39;22.50;44.20
52073;DHT22;38074;51.232;6.826;2023-12-14T20:42:55;22.50;44.70
52073;DHT22;38074;51.232;6.826;2023-12-14T20:50:10;22.50;44.30
52073;DHT22;38074;51.232;6.826;2023-12-14T20:57:26;22.50;44.30
52073;DHT22;38074;51.232;6.826;2023-12-14T21:04:41;22.50;44.30
52073;DHT22;38074;51.232;6.826;2023-12-14T21:11:57;22.50;44.30
52073;DHT22;38074;51.232;6.826;2023-12-14T21:19:12;22.50;44.30
52073;DHT22;38074;51.232;6.826;2023-12-14T21:26:28;22.50;44.50
52073;DHT22;38074;51.232;6.826;2023-12-14T21:33:50;22.50;44.50
52073;DHT22;38074;51.232;6.826;2023-12-14T21:41:06;22.50;44.50
52073;DHT22;38074;51.232;6.826;2023-12-14T21:48:21;22.50;44.50
52073;DHT22;38074;51.232;6.826;2023-12-14T21:55:37;22.50;44.50
52073;DHT22;38074;51.232;6.826;2023-12-14T22:02:52;22.50;44.50
52073;DHT22;38074;51.232;6.826;2023-12-14T22:10:08;22.50;44.50
52073;DHT22;38074;51.232;6.826;2023-12-14T22:17:30;22.50;44.60
52073;DHT22;38074;51.232;6.826;2023-12-14T22:24:46;22.50;44.60
52073;DHT22;38074;51.232;6.826;2023-12-14T22:32:01;22.50;44.50
52073;DHT22;38074;51.232;6.826;2023-12-14T22:39:17;22.50;44.70
52073;DHT22;38074;51.232;6.826;2023-12-14T22:46:32;22.50;44.80
52073;DHT22;38074;51.232;6.826;2023-12-14T22:53:48;22.50;44.70
52073;DHT22;38074;51.232;6.826;2023-12-14T23:01:04;22.50;44.70
52073;DHT22;38074;51.232;6.826;2023-12-14T23:08:19;22.50;44.70
52073;DHT22;38074;51.232;6.826;2023-12-14T23:15:35;22.50;44.70
52073;DHT22;38074;51.232;6.826;2023-12-14T23:22:51;22.50;44.60
52073;DHT22;38074;51.232;6.826;2023-12-14T23:30:06;22.50;44.60
52073;DHT22;38074;51.232;6.826;2023-12-14T23:37:22;22.50;44.60
52073;DHT22;38074;51.232;6.826;2023-12-14T23:44:38;22.50;44.60
52073;DHT22;38074;51.232;6.826;2023-12-14T23:51:53;22.50;44.60
52073;DHT22;38074;51.232;6.826;2023-12-14T23:59:09;22.50;44.50
